Time;durP1;ratioP1;P1;durP2;ratioP2;P2;SDS_P1;SDS_P2;PMS_P1;PMS_P2;Temp;Humidity;BMP_temperature;BMP_pressure;BME280_temperature;BME280_humidity;BME280_pressure;Samples;Min_cycle;Max_cycle;Signal;HPM_P1;HPM_P2
2022/11/23 00:01:21;;;;;;;10.48;6.93;;;;;;;;;;4979011;28;20474;-68
2022/11/23 00:03:48;;;;;;;7.50;6.80;;;;;;;;;;4975117;28;20116;-68
2022/11/23 00:06:15;;;;;;;7.72;6.80;;;;;;;;;;4976165;28;20058;-68
2022/11/23 00:08:41;;;;;;;7.10;6.40;;;;;;;;;;4982107;28;20053;-68
2022/11/23 00:11:07;;;;;;;9.50;6.93;;;;;;;;;;4978126;28;20361;-68
2022/11/23 00:13:34;;;;;;;7.20;6.63;;;;;;;;;;4976982;28;20046;-68
2022/11/23 00:16:04;;;;;;;10.55;7.03;;;;;;;;;;4971371;28;20046;-67
2022/11/23 00:18:29;;;;;;;7.03;6.32;;;;;;;;;;4977478;28;20058;-68
2022/11/23 00:20:55;;;;;;;9.85;6.85;;;;;;;;;;4977589;28;20054;-68
2022/11/23 00:23:21;;;;;;;9.68;6.78;;;;;;;;;;4975407;28;20739;-68
2022/11/23 00:25:46;;;;;;;6.95;6.38;;;;;;;;;;4974087;28;20489;-68
2022/11/23 00:28:12;;;;;;;7.22;6.63;;;;;;;;;;4973094;28;20038;-68
2022/11/23 00:30:37;;;;;;;9.82;7.00;;;;;;;;;;4975205;28;20545;-68
2022/11/23 00:33:03;;;;;;;9.35;7.18;;;;;;;;;;4973936;28;20031;-68
2022/11/23 00:35:30;;;;;;;6.38;5.88;;;;;;;;;;4978375;28;20036;-68
2022/11/23 00:37:55;;;;;;;6.55;6.03;;;;;;;;;;4978366;28;20396;-68
2022/11/23 00:40:21;;;;;;;7.13;6.15;;;;;;;;;;4973037;28;20041;-68
2022/11/23 00:42:46;;;;;;;9.15;6.78;;;;;;;;;;4975515;28;20041;-68
2022/11/23 00:45:12;;;;;;;11.95;6.28;;;;;;;;;;4978668;28;20039;-68
2022/11/23 00:47:37;;;;;;;11.05;6.50;;;;;;;;;;4981570;28;20047;-68
2022/11/23 00:50:04;;;;;;;8.10;5.97;;;;;;;;;;4983495;28;20395;-68
2022/11/23 00:52:29;;;;;;;6.28;5.88;;;;;;;;;;4973921;28;20489;-67
2022/11/23 00:54:55;;;;;;;6.63;6.03;;;;;;;;;;4972680;28;20030;-68
2022/11/23 00:57:21;;;;;;;8.80;6.03;;;;;;;;;;4972049;28;20085;-68
2022/11/23 00:59:46;;;;;;;8.15;5.93;;;;;;;;;;4976751;28;20035;-68
2022/11/23 01:02:12;;;;;;;9.35;5.93;;;;;;;;;;4979979;28;20613;-68
2022/11/23 01:04:38;;;;;;;6.63;6.05;;;;;;;;;;4973297;28;20034;-68
2022/11/23 01:07:04;;;;;;;6.57;6.03;;;;;;;;;;4975609;28;20039;-68
2022/11/23 01:09:30;;;;;;;6.60;6.07;;;;;;;;;;4971457;28;20031;-68
2022/11/23 01:11:56;;;;;;;6.75;6.20;;;;;;;;;;4974461;28;20490;-68
2022/11/23 01:14:22;;;;;;;7.85;6.00;;;;;;;;;;4976928;28;20041;-68
2022/11/23 01:16:49;;;;;;;9.48;6.20;;;;;;;;;;4984474;28;20035;-68
2022/11/23 01:19:19;;;;;;;6.55;5.97;;;;;;;;;;4982146;28;20038;-67
2022/11/23 01:21:48;;;;;;;6.45;6.05;;;;;;;;;;4975238;28;20034;-68
2022/11/23 01:24:17;;;;;;;6.40;5.90;;;;;;;;;;4973112;28;20380;-68
2022/11/23 01:26:43;;;;;;;;;;;;;;;;;;4972151;28;20038;-68
2022/11/23 01:29:09;;;;;;;5.85;5.55;;;;;;;;;;4979400;28;20284;-68
2022/11/23 01:31:37;;;;;;;13.02;7.28;;;;;;;;;;4977642;28;20038;-68
2022/11/23 01:34:04;;;;;;;11.05;6.32;;;;;;;;;;4976028;28;20070;-68
2022/11/23 01:36:33;;;;;;;6.80;6.22;;;;;;;;;;4978148;28;20106;-67
2022/11/23 01:39:00;;;;;;;8.40;6.28;;;;;;;;;;4975311;28;20125;-68
2022/11/23 01:41:30;;;;;;;9.32;6.35;;;;;;;;;;4977935;28;20441;-68
2022/11/23 01:43:55;;;;;;;;;;;;;;;;;;4977272;28;20392;-68
2022/11/23 01:46:21;;;;;;;6.07;5.68;;;;;;;;;;4979560;28;20005;-68
2022/11/23 01:49:02;;;;;;;6.82;6.18;;;;;;;;;;4992109;28;20034;-67
2022/11/23 01:51:33;;;;;;;8.82;6.80;;;;;;;;;;4982955;28;20042;-68
2022/11/23 01:54:29;;;;;;;7.63;6.50;;;;;;;;;;4979776;28;20462;-68
2022/11/23 01:57:00;;;;;;;6.22;5.80;;;;;;;;;;4988552;28;20166;-68
2022/11/23 01:59:27;;;;;;;6.75;6.07;;;;;;;;;;4989081;28;20089;-68
2022/11/23 02:01:53;;;;;;;6.80;6.20;;;;;;;;;;4975813;28;20169;-68
2022/11/23 02:04:23;;;;;;;6.80;6.32;;;;;;;;;;4982152;28;20158;-68
2022/11/23 02:06:49;;;;;;;9.18;6.63;;;;;;;;;;4973404;28;20037;-68
2022/11/23 02:09:16;;;;;;;8.30;6.70;;;;;;;;;;4977277;28;20031;-68
2022/11/23 02:11:42;;;;;;;8.60;6.78;;;;;;;;;;4978793;28;20030;-68
2022/11/23 02:14:11;;;;;;;;;;;;;;;;;;4979973;28;20057;-68
2022/11/23 02:16:37;;;;;;;7.28;6.60;;;;;;;;;;4977271;28;20512;-68
2022/11/23 02:19:07;;;;;;;19.15;7.18;;;;;;;;;;4981199;28;20039;-68
2022/11/23 02:21:33;;;;;;;6.43;5.95;;;;;;;;;;4987232;28;20034;-68
2022/11/23 02:24:20;;;;;;;7.18;6.20;;;;;;;;;;4970376;28;20048;-68
2022/11/23 02:26:46;;;;;;;7.13;6.53;;;;;;;;;;4992816;28;20042;-68
2022/11/23 02:29:15;;;;;;;7.90;7.10;;;;;;;;;;4982241;28;20039;-68
2022/11/23 02:31:41;;;;;;;6.60;6.10;;;;;;;;;;4982917;28;20109;-68
2022/11/23 02:34:06;;;;;;;8.13;7.32;;;;;;;;;;4975671;28;20502;-70
2022/11/23 02:36:50;;;;;;;10.35;6.70;;;;;;;;;;4979519;28;20043;-70
2022/11/23 02:39:34;;;;;;;8.82;7.18;;;;;;;;;;4982875;28;20035;-70
2022/11/23 02:42:02;;;;;;;7.00;6.28;;;;;;;;;;4991221;28;20570;-68
2022/11/23 02:44:58;;;;;;;6.05;5.65;;;;;;;;;;4992969;28;20042;-67
2022/11/23 02:47:24;;;;;;;6.88;6.38;;;;;;;;;;4978654;28;20069;-69
2022/11/23 02:49:49;;;;;;;6.65;6.05;;;;;;;;;;4974894;28;20346;-69
2022/11/23 02:52:17;;;;;;;10.60;6.85;;;;;;;;;;4984330;28;20042;-70
2022/11/23 02:54:42;;;;;;;8.55;6.63;;;;;;;;;;4977910;28;20042;-69
2022/11/23 02:57:08;;;;;;;9.35;7.03;;;;;;;;;;4979913;28;20043;-69
2022/11/23 02:59:34;;;;;;;6.63;6.10;;;;;;;;;;4980451;28;20085;-70
2022/11/23 03:02:02;;;;;;;8.65;6.40;;;;;;;;;;4977465;28;20042;-70
2022/11/23 03:04:29;;;;;;;6.75;6.15;;;;;;;;;;4984201;28;20030;-70
2022/11/23 03:06:55;;;;;;;7.00;6.30;;;;;;;;;;4979971;28;20041;-69
2022/11/23 03:09:21;;;;;;;8.98;7.20;;;;;;;;;;4979287;28;20128;-70
2022/11/23 03:11:47;;;;;;;6.97;6.28;;;;;;;;;;4975409;28;20049;-69
2022/11/23 03:14:13;;;;;;;6.10;5.70;;;;;;;;;;4977740;28;20046;-69
2022/11/23 03:16:48;;;;;;;6.78;6.20;;;;;;;;;;4971872;28;20084;-69
2022/11/23 03:19:15;;;;;;;8.98;6.60;;;;;;;;;;4975657;28;20034;-69
2022/11/23 03:21:41;;;;;;;6.50;6.00;;;;;;;;;;4978315;28;20150;-70
2022/11/23 03:24:07;;;;;;;7.45;6.65;;;;;;;;;;4975437;28;20136;-69
2022/11/23 03:26:33;;;;;;;5.63;5.32;;;;;;;;;;4977060;28;20041;-69
2022/11/23 03:29:07;;;;;;;8.90;6.32;;;;;;;;;;4985666;28;20073;-69
2022/11/23 03:31:32;;;;;;;11.55;6.05;;;;;;;;;;4979916;28;20073;-69
2022/11/23 03:33:58;;;;;;;7.50;6.45;;;;;;;;;;4972130;28;20501;-69
2022/11/23 03:36:25;;;;;;;9.20;6.18;;;;;;;;;;4972275;28;20470;-69
2022/11/23 03:38:51;;;;;;;7.97;5.88;;;;;;;;;;4978471;28;20037;-70
2022/11/23 03:41:51;;;;;;;13.07;6.65;;;;;;;;;;4933722;28;20047;-69
2022/11/23 03:44:20;;;;;;;6.40;5.90;;;;;;;;;;4968638;28;20081;-69
2022/11/23 03:46:45;;;;;;;7.22;6.30;;;;;;;;;;4977767;28;20493;-69
2022/11/23 03:49:11;;;;;;;6.07;5.68;;;;;;;;;;4963475;28;20116;-70
2022/11/23 03:51:37;;;;;;;7.40;6.72;;;;;;;;;;4971523;28;20065;-70
2022/11/23 03:54:03;;;;;;;11.15;6.13;;;;;;;;;;4980998;28;20045;-69
2022/11/23 03:56:28;;;;;;;7.43;5.85;;;;;;;;;;4984592;28;20049;-69
2022/11/23 03:58:55;;;;;;;6.35;5.85;;;;;;;;;;4977265;28;20207;-69
2022/11/23 04:01:20;;;;;;;6.05;5.65;;;;;;;;;;4973052;28;20045;-69
2022/11/23 04:03:52;;;;;;;16.92;6.03;;;;;;;;;;4970921;28;20034;-69
2022/11/23 04:06:24;;;;;;;8.80;5.63;;;;;;;;;;4969558;28;20035;-69
2022/11/23 04:09:02;;;;;;;6.47;5.87;;;;;;;;;;4967369;28;20053;-69
2022/11/23 04:11:39;;;;;;;12.18;6.30;;;;;;;;;;4975964;28;20352;-70
2022/11/23 04:14:07;;;;;;;6.43;5.82;;;;;;;;;;4977561;28;20034;-69
2022/11/23 04:16:33;;;;;;;6.47;5.97;;;;;;;;;;4972369;28;20042;-69
2022/11/23 04:19:00;;;;;;;7.35;5.88;;;;;;;;;;4975650;28;20039;-69
2022/11/23 04:21:26;;;;;;;10.15;6.18;;;;;;;;;;4975940;28;20038;-69
2022/11/23 04:23:51;;;;;;;6.70;6.10;;;;;;;;;;4972077;28;20030;-69
2022/11/23 04:26:18;;;;;;;8.85;5.95;;;;;;;;;;4969887;28;20042;-70
2022/11/23 04:28:45;;;;;;;5.60;5.30;;;;;;;;;;4980760;28;20491;-70
2022/11/23 04:31:11;;;;;;;15.45;6.97;;;;;;;;;;4979348;28;20049;-70
2022/11/23 04:33:48;;;;;;;7.03;5.63;;;;;;;;;;4977344;28;20497;-70
2022/11/23 04:36:16;;;;;;;6.57;5.47;;;;;;;;;;4970056;28;20043;-70
2022/11/23 04:38:42;;;;;;;7.30;4.85;;;;;;;;;;4971565;28;20070;-70
2022/11/23 04:41:09;;;;;;;7.35;5.57;;;;;;;;;;4970708;28;20041;-69
2022/11/23 04:43:35;;;;;;;5.45;4.85;;;;;;;;;;4968299;28;20134;-70
2022/11/23 04:46:02;;;;;;;13.35;6.45;;;;;;;;;;4971553;28;20121;-70
2022/11/23 04:48:30;;;;;;;5.82;5.30;;;;;;;;;;4971236;28;20565;-70
2022/11/23 04:50:57;;;;;;;5.80;5.30;;;;;;;;;;4975639;28;20117;-70
2022/11/23 04:53:29;;;;;;;5.72;5.40;;;;;;;;;;4977439;28;20037;-70
2022/11/23 04:55:55;;;;;;;8.15;5.85;;;;;;;;;;4979459;28;20125;-70
2022/11/23 04:58:22;;;;;;;7.43;5.85;;;;;;;;;;4972495;28;20050;-70
2022/11/23 05:00:53;;;;;;;6.10;5.60;;;;;;;;;;4969862;28;20061;-70
2022/11/23 05:03:19;;;;;;;8.25;5.97;;;;;;;;;;4967614;28;20715;-70
2022/11/23 05:05:44;;;;;;;9.80;6.28;;;;;;;;;;4970333;28;20121;-70
2022/11/23 05:08:12;;;;;;;6.18;5.72;;;;;;;;;;4966304;28;20037;-70
2022/11/23 05:10:58;;;;;;;8.15;6.22;;;;;;;;;;4975022;28;20053;-70
2022/11/23 05:13:25;;;;;;;8.35;5.95;;;;;;;;;;4968264;28;20027;-70
2022/11/23 05:15:50;;;;;;;8.50;6.30;;;;;;;;;;4981339;28;20395;-70
2022/11/23 05:18:22;;;;;;;9.52;6.60;;;;;;;;;;4981426;28;20409;-70
2022/11/23 05:20:49;;;;;;;8.32;6.55;;;;;;;;;;4971737;28;20070;-70
2022/11/23 05:23:16;;;;;;;8.00;6.28;;;;;;;;;;4977457;28;20121;-70
2022/11/23 05:25:43;;;;;;;7.53;6.00;;;;;;;;;;4986020;28;20121;-70
2022/11/23 05:28:14;;;;;;;;;;;;;;;;;;4975946;28;20248;-70
2022/11/23 05:30:39;;;;;;;6.03;5.63;;;;;;;;;;4995763;28;20410;-70
2022/11/23 05:33:05;;;;;;;12.07;7.53;;;;;;;;;;4981814;28;20045;-70
2022/11/23 05:35:30;;;;;;;7.00;6.38;;;;;;;;;;4985174;28;20026;-70
2022/11/23 05:37:56;;;;;;;8.90;7.20;;;;;;;;;;4969143;28;20050;-70
2022/11/23 05:40:22;;;;;;;7.38;6.63;;;;;;;;;;4970259;28;20041;-70
2022/11/23 05:42:58;;;;;;;7.35;6.57;;;;;;;;;;4970638;28;20053;-70
2022/11/23 05:45:25;;;;;;;10.45;6.47;;;;;;;;;;4976930;28;20387;-70
2022/11/23 05:47:56;;;;;;;12.90;6.45;;;;;;;;;;4983971;28;20046;-70
2022/11/23 05:50:33;;;;;;;9.80;6.40;;;;;;;;;;4977688;28;20459;-69
2022/11/23 05:53:34;;;;;;;12.20;6.50;;;;;;;;;;4975636;28;20431;-69
2022/11/23 05:56:08;;;;;;;9.23;8.27;;;;;;;;;;4983562;28;20101;-69
2022/11/23 05:58:43;;;;;;;8.55;7.60;;;;;;;;;;4976140;28;20569;-70
2022/11/23 06:01:09;;;;;;;16.77;7.35;;;;;;;;;;4976068;28;20050;-70
2022/11/23 06:03:37;;;;;;;10.23;7.45;;;;;;;;;;4976564;28;20034;-70
2022/11/23 06:06:03;;;;;;;8.55;7.78;;;;;;;;;;4971588;28;20466;-70
2022/11/23 06:08:36;;;;;;;8.32;7.53;;;;;;;;;;4973661;28;20117;-70
2022/11/23 06:11:02;;;;;;;12.95;8.10;;;;;;;;;;4975529;28;20034;-70
2022/11/23 06:13:29;;;;;;;9.23;7.78;;;;;;;;;;4980527;28;20042;-69
2022/11/23 06:15:54;;;;;;;10.68;8.55;;;;;;;;;;4970718;28;20081;-70
2022/11/23 06:18:27;;;;;;;12.27;9.05;;;;;;;;;;4981552;28;20129;-70
2022/11/23 06:20:53;;;;;;;13.95;9.88;;;;;;;;;;4978960;28;20043;-70
2022/11/23 06:23:18;;;;;;;29.83;9.85;;;;;;;;;;4970018;28;20027;-69
2022/11/23 06:25:44;;;;;;;22.33;10.20;;;;;;;;;;4979221;28;20353;-74
2022/11/23 06:28:30;;;;;;;14.30;9.02;;;;;;;;;;4979331;28;20046;-74
2022/11/23 06:31:02;;;;;;;11.73;7.93;;;;;;;;;;4973645;28;20038;-74
2022/11/23 06:33:27;;;;;;;15.07;8.50;;;;;;;;;;4966934;28;21475;-74
2022/11/23 06:35:58;;;;;;;14.05;9.18;;;;;;;;;;4976582;28;20034;-74
2022/11/23 06:38:28;;;;;;;32.45;27.95;;;;;;;;;;4971279;28;20034;-74
2022/11/23 06:41:00;;;;;;;13.35;9.98;;;;;;;;;;4975614;28;20524;-74
2022/11/23 06:43:28;;;;;;;12.43;8.02;;;;;;;;;;4970216;28;20388;-72
2022/11/23 06:45:54;;;;;;;15.32;11.05;;;;;;;;;;4970620;28;20045;-73
2022/11/23 06:48:24;;;;;;;7.68;6.97;;;;;;;;;;4972765;28;20552;-73
2022/11/23 06:50:50;;;;;;;7.45;6.75;;;;;;;;;;4969286;28;20034;-73
2022/11/23 06:53:17;;;;;;;18.42;10.30;;;;;;;;;;4967238;28;20070;-73
2022/11/23 06:55:47;;;;;;;9.82;8.13;;;;;;;;;;4974276;28;20042;-73
2022/11/23 06:58:16;;;;;;;10.25;8.77;;;;;;;;;;4968099;28;20544;-73
2022/11/23 07:00:42;;;;;;;12.07;8.15;;;;;;;;;;4970776;28;20037;-73
2022/11/23 07:03:17;;;;;;;;;;;;;;;;;;4975979;28;20069;-73
2022/11/23 07:05:43;;;;;;;9.70;7.70;;;;;;;;;;4975906;28;19924;-74
2022/11/23 07:08:09;;;;;;;10.32;7.05;;;;;;;;;;4968281;28;20039;-73
2022/11/23 07:10:35;;;;;;;7.13;6.47;;;;;;;;;;4970524;28;20402;-73
2022/11/23 07:13:04;;;;;;;9.27;6.80;;;;;;;;;;4971565;28;20042;-73
2022/11/23 07:15:31;;;;;;;6.63;6.13;;;;;;;;;;4972003;28;20034;-73
2022/11/23 07:17:57;;;;;;;11.57;6.28;;;;;;;;;;4983110;28;20397;-73
2022/11/23 07:20:24;;;;;;;9.30;7.30;;;;;;;;;;4971008;28;20046;-73
2022/11/23 07:23:04;;;;;;;13.88;7.85;;;;;;;;;;4969608;28;20062;-73
2022/11/23 07:25:33;;;;;;;6.18;5.78;;;;;;;;;;4973426;28;20049;-73
2022/11/23 07:28:00;;;;;;;10.27;6.87;;;;;;;;;;4974242;28;20126;-73
2022/11/23 07:30:28;;;;;;;7.93;7.22;;;;;;;;;;4977125;28;20065;-73
2022/11/23 07:32:59;;;;;;;7.65;6.88;;;;;;;;;;4966720;28;20088;-73
2022/11/23 07:35:25;;;;;;;6.55;6.07;;;;;;;;;;4971381;28;20149;-73
2022/11/23 07:37:51;;;;;;;7.63;6.60;;;;;;;;;;4972420;28;20509;-73
2022/11/23 07:40:16;;;;;;;7.63;6.93;;;;;;;;;;4974275;28;20470;-73
2022/11/23 07:42:42;;;;;;;7.70;7.00;;;;;;;;;;4984369;28;20046;-74
2022/11/23 07:45:08;;;;;;;10.30;7.40;;;;;;;;;;4971803;28;20362;-74
2022/11/23 07:47:37;;;;;;;9.70;8.73;;;;;;;;;;4981773;28;20065;-73
2022/11/23 07:50:06;;;;;;;16.92;10.07;;;;;;;;;;4971956;28;20050;-74
2022/11/23 07:52:34;;;;;;;12.38;10.80;;;;;;;;;;4969039;28;20554;-73
2022/11/23 07:54:59;;;;;;;12.27;8.60;;;;;;;;;;4976978;28;20116;-73
2022/11/23 07:57:25;;;;;;;8.52;7.72;;;;;;;;;;4972015;28;20066;-73
2022/11/23 07:59:51;;;;;;;7.72;7.03;;;;;;;;;;4968089;28;20042;-73
2022/11/23 08:02:16;;;;;;;6.88;6.28;;;;;;;;;;4973041;28;20041;-74
2022/11/23 08:04:42;;;;;;;7.13;6.38;;;;;;;;;;4973193;28;20039;-73
2022/11/23 08:07:07;;;;;;;7.68;6.97;;;;;;;;;;4969884;28;20054;-73
2022/11/23 08:09:33;;;;;;;7.63;6.82;;;;;;;;;;4969342;28;20037;-73
2022/11/23 08:11:58;;;;;;;7.63;6.82;;;;;;;;;;4972360;28;20548;-73
2022/11/23 08:14:24;;;;;;;9.65;6.88;;;;;;;;;;4973556;28;20397;-73
2022/11/23 08:16:50;;;;;;;7.68;6.95;;;;;;;;;;4972662;28;20461;-74
2022/11/23 08:19:16;;;;;;;7.85;7.18;;;;;;;;;;4968039;28;20112;-73
2022/11/23 08:21:42;;;;;;;9.65;7.20;;;;;;;;;;4974503;28;20065;-73
2022/11/23 08:24:08;;;;;;;7.90;7.20;;;;;;;;;;4968094;28;20405;-74
2022/11/23 08:26:34;;;;;;;8.85;7.20;;;;;;;;;;4969191;28;20030;-74
2022/11/23 08:28:59;;;;;;;12.43;7.25;;;;;;;;;;4976628;28;20399;-73
2022/11/23 08:31:25;;;;;;;8.02;7.20;;;;;;;;;;4967318;28;20049;-73
2022/11/23 08:33:50;;;;;;;9.98;7.70;;;;;;;;;;4971207;28;20045;-73
2022/11/23 08:36:16;;;;;;;10.20;7.78;;;;;;;;;;4968711;28;20027;-73
2022/11/23 08:38:42;;;;;;;7.60;6.97;;;;;;;;;;4972666;28;20581;-74
2022/11/23 08:41:08;;;;;;;8.80;7.75;;;;;;;;;;4975800;28;20077;-73
2022/11/23 08:43:34;;;;;;;8.95;7.90;;;;;;;;;;4972312;28;20109;-74
2022/11/23 08:46:00;;;;;;;9.95;6.82;;;;;;;;;;4972012;28;20039;-73
2022/11/23 08:48:27;;;;;;;7.97;7.28;;;;;;;;;;4977571;28;20310;-73
2022/11/23 08:50:53;;;;;;;7.70;7.00;;;;;;;;;;4975323;28;20042;-73
2022/11/23 08:53:19;;;;;;;8.48;7.13;;;;;;;;;;4972118;28;20034;-73
2022/11/23 08:55:45;;;;;;;8.02;7.03;;;;;;;;;;4975637;28;20038;-74
2022/11/23 08:58:10;;;;;;;10.93;7.15;;;;;;;;;;4980003;28;20038;-73
2022/11/23 09:00:36;;;;;;;7.97;7.28;;;;;;;;;;4979552;28;20038;-73
2022/11/23 09:03:02;;;;;;;15.20;9.90;;;;;;;;;;4969149;28;20034;-73
2022/11/23 09:05:28;;;;;;;10.27;7.90;;;;;;;;;;4978007;28;20034;-71
2022/11/23 09:07:58;;;;;;;9.13;8.23;;;;;;;;;;4984451;28;20413;-71
2022/11/23 09:10:24;;;;;;;8.50;7.80;;;;;;;;;;4975661;28;20102;-73
2022/11/23 09:12:49;;;;;;;9.15;8.10;;;;;;;;;;4970011;28;20035;-73
2022/11/23 09:15:15;;;;;;;10.93;8.10;;;;;;;;;;4975618;28;20113;-74
2022/11/23 09:17:41;;;;;;;10.57;8.18;;;;;;;;;;4979182;28;20482;-73
2022/11/23 09:20:08;;;;;;;9.90;8.30;;;;;;;;;;4973281;28;20630;-74
2022/11/23 09:22:34;;;;;;;9.50;8.55;;;;;;;;;;4974000;28;20042;-71
2022/11/23 09:25:00;;;;;;;9.00;8.27;;;;;;;;;;4978924;28;20125;-74
2022/11/23 09:27:26;;;;;;;9.77;8.82;;;;;;;;;;4979455;28;20453;-74
2022/11/23 09:29:51;;;;;;;9.80;8.82;;;;;;;;;;4968456;28;20047;-74
2022/11/23 09:32:17;;;;;;;8.38;7.55;;;;;;;;;;4976215;28;20414;-73
2022/11/23 09:34:44;;;;;;;9.18;8.25;;;;;;;;;;4976413;28;20038;-73
2022/11/23 09:37:10;;;;;;;9.55;8.55;;;;;;;;;;4975997;28;20077;-73
2022/11/23 09:39:36;;;;;;;8.98;8.20;;;;;;;;;;4970501;28;20446;-73
2022/11/23 09:42:12;;;;;;;8.90;8.07;;;;;;;;;;4978402;28;20042;-73
2022/11/23 09:44:37;;;;;;;9.48;8.07;;;;;;;;;;4979374;28;20048;-72
2022/11/23 09:47:06;;;;;;;9.02;8.27;;;;;;;;;;4969468;28;20413;-72
2022/11/23 09:49:43;;;;;;;9.57;8.30;;;;;;;;;;4977395;28;20034;-73
2022/11/23 09:52:16;;;;;;;15.10;8.57;;;;;;;;;;4975511;28;20061;-72
2022/11/23 09:54:45;;;;;;;11.63;9.07;;;;;;;;;;4978616;28;20342;-72
2022/11/23 09:57:19;;;;;;;8.77;8.07;;;;;;;;;;4967095;28;20186;-72
2022/11/23 10:00:00;;;;;;;16.73;9.63;;;;;;;;;;4977486;28;20038;-72
2022/11/23 10:02:30;;;;;;;9.30;8.50;;;;;;;;;;4978542;28;20117;-72
2022/11/23 10:04:59;;;;;;;9.63;8.73;;;;;;;;;;4975772;28;20394;-73
2022/11/23 10:07:36;;;;;;;8.80;7.82;;;;;;;;;;4968786;28;20126;-73
2022/11/23 10:10:12;;;;;;;12.27;8.50;;;;;;;;;;4979322;28;20386;-73
2022/11/23 10:12:48;;;;;;;8.80;8.02;;;;;;;;;;4971307;28;20077;-72
2022/11/23 10:15:24;;;;;;;8.90;8.18;;;;;;;;;;4970040;28;20410;-73
2022/11/23 10:18:12;;;;;;;9.15;8.25;;;;;;;;;;4973002;28;20121;-73
2022/11/23 10:20:56;;;;;;;8.50;7.72;;;;;;;;;;4979328;28;20161;-73
2022/11/23 10:23:28;;;;;;;8.57;7.57;;;;;;;;;;4972109;28;20042;-72
2022/11/23 10:25:53;;;;;;;10.38;7.63;;;;;;;;;;4978044;28;20101;-72
2022/11/23 10:28:21;;;;;;;8.65;7.85;;;;;;;;;;4975079;28;20046;-72
2022/11/23 10:31:06;;;;;;;9.70;8.80;;;;;;;;;;4970864;28;20110;-73
2022/11/23 10:33:40;;;;;;;8.70;7.85;;;;;;;;;;4967986;28;20035;-72
2022/11/23 10:36:09;;;;;;;8.40;7.70;;;;;;;;;;4976862;28;20073;-72
2022/11/23 10:38:35;;;;;;;9.00;8.00;;;;;;;;;;4973049;28;20062;-73
2022/11/23 10:41:08;;;;;;;10.40;8.10;;;;;;;;;;4970084;28;20081;-72
2022/11/23 10:43:54;;;;;;;9.27;7.93;;;;;;;;;;4976038;28;20037;-72
2022/11/23 10:46:36;;;;;;;10.02;8.52;;;;;;;;;;4975318;28;20035;-73
2022/11/23 10:49:17;;;;;;;8.60;7.80;;;;;;;;;;4975505;28;20042;-72
2022/11/23 10:51:50;;;;;;;7.97;7.35;;;;;;;;;;4972631;28;20041;-72
2022/11/23 10:54:34;;;;;;;8.82;7.93;;;;;;;;;;4970538;28;20034;-72
2022/11/23 10:57:19;;;;;;;9.30;8.38;;;;;;;;;;4974224;28;20034;-72
2022/11/23 11:00:13;;;;;;;9.60;8.80;;;;;;;;;;4971093;28;20034;-72
2022/11/23 11:02:59;;;;;;;10.75;9.23;;;;;;;;;;4973292;28;20104;-72
2022/11/23 11:05:35;;;;;;;9.18;8.38;;;;;;;;;;4970765;28;20033;-72
2022/11/23 11:08:12;;;;;;;10.18;8.88;;;;;;;;;;4968261;28;20310;-72
2022/11/23 11:10:39;;;;;;;10.23;9.15;;;;;;;;;;4977245;28;20034;-72
2022/11/23 11:13:21;;;;;;;9.68;8.75;;;;;;;;;;4974132;28;20041;-72
2022/11/23 11:15:56;;;;;;;11.88;9.00;;;;;;;;;;4970725;28;20037;-72
2022/11/23 11:18:24;;;;;;;9.43;8.73;;;;;;;;;;4976824;28;20130;-72
2022/11/23 11:20:57;;;;;;;9.77;8.85;;;;;;;;;;4973388;28;20030;-72
2022/11/23 11:23:23;;;;;;;9.38;8.57;;;;;;;;;;4973002;28;20039;-72
2022/11/23 11:26:00;;;;;;;8.93;8.23;;;;;;;;;;4973282;28;20030;-72
2022/11/23 11:28:35;;;;;;;9.98;8.88;;;;;;;;;;4973128;28;20125;-72
2022/11/23 11:31:16;;;;;;;8.25;7.57;;;;;;;;;;4977091;28;20042;-72
2022/11/23 11:33:49;;;;;;;8.82;7.18;;;;;;;;;;4966527;28;20070;-72
2022/11/23 11:36:16;;;;;;;8.65;7.47;;;;;;;;;;4970044;28;20022;-72
2022/11/23 11:38:49;;;;;;;8.05;7.45;;;;;;;;;;4972126;28;20042;-71
2022/11/23 11:41:18;;;;;;;7.60;7.03;;;;;;;;;;4968386;28;20109;-72
2022/11/23 11:43:46;;;;;;;;;;;;;;;;;;4975307;28;20413;-72
2022/11/23 11:46:14;;;;;;;7.88;7.38;;;;;;;;;;4977227;28;19972;-72
2022/11/23 11:48:49;;;;;;;8.43;7.82;;;;;;;;;;4969808;28;20138;-73
2022/11/23 11:51:38;;;;;;;8.05;7.55;;;;;;;;;;4972908;28;20100;-73
2022/11/23 11:54:30;;;;;;;7.93;7.43;;;;;;;;;;4975216;28;20049;-73
2022/11/23 11:57:16;;;;;;;8.30;7.70;;;;;;;;;;4969961;28;20034;-72
2022/11/23 11:59:46;;;;;;;8.45;7.80;;;;;;;;;;4971773;28;20046;-72
2022/11/23 12:02:55;;;;;;;8.30;7.60;;;;;;;;;;4972425;28;20456;-72
2022/11/23 12:05:26;;;;;;;8.65;7.85;;;;;;;;;;4980179;28;20504;-72
2022/11/23 12:07:59;;;;;;;8.43;7.72;;;;;;;;;;4966829;28;20628;-73
2022/11/23 12:10:29;;;;;;;8.52;7.72;;;;;;;;;;4975757;28;20042;-73
2022/11/23 12:12:58;;;;;;;8.57;7.82;;;;;;;;;;4968839;28;20723;-72
2022/11/23 12:15:31;;;;;;;7.93;7.43;;;;;;;;;;4967777;28;20035;-72
2022/11/23 12:18:28;;;;;;;8.10;7.60;;;;;;;;;;4973740;28;20031;-72
2022/11/23 12:21:24;;;;;;;8.07;7.53;;;;;;;;;;4967812;28;20490;-72
2022/11/23 12:24:09;;;;;;;8.02;7.53;;;;;;;;;;4968404;28;20035;-73
2022/11/23 12:27:07;;;;;;;8.80;8.13;;;;;;;;;;4970989;28;20490;-72
2022/11/23 12:29:51;;;;;;;8.00;7.50;;;;;;;;;;4972313;28;20065;-72
2022/11/23 12:32:45;;;;;;;7.78;7.28;;;;;;;;;;4972396;28;20301;-72
2022/11/23 12:35:41;;;;;;;8.18;7.45;;;;;;;;;;4975727;28;20292;-72
2022/11/23 12:38:22;;;;;;;7.22;6.82;;;;;;;;;;4976129;28;20061;-73
2022/11/23 12:41:07;;;;;;;7.88;7.40;;;;;;;;;;4974243;28;20050;-72
2022/11/23 12:44:16;;;;;;;7.70;7.15;;;;;;;;;;4970152;28;20485;-72
2022/11/23 12:46:49;;;;;;;8.23;7.70;;;;;;;;;;4971544;28;20141;-72
2022/11/23 12:49:26;;;;;;;7.95;7.18;;;;;;;;;;4976923;28;20137;-73
2022/11/23 12:52:26;;;;;;;6.93;6.45;;;;;;;;;;4968855;28;20482;-72
2022/11/23 12:55:28;;;;;;;7.20;6.80;;;;;;;;;;4972466;28;20053;-72
2022/11/23 12:58:10;;;;;;;7.07;6.65;;;;;;;;;;4971597;28;20039;-73
2022/11/23 13:01:14;;;;;;;7.25;6.65;;;;;;;;;;4973814;28;20085;-72
2022/11/23 13:04:13;;;;;;;6.97;6.40;;;;;;;;;;4958965;28;20477;-72
2022/11/23 13:07:17;;;;;;;8.85;6.35;;;;;;;;;;4967917;28;20508;-73
2022/11/23 13:10:09;;;;;;;6.82;6.43;;;;;;;;;;4971298;28;20093;-72
2022/11/23 13:12:41;;;;;;;7.43;6.93;;;;;;;;;;4973158;28;20034;-73
2022/11/23 13:15:34;;;;;;;7.57;7.07;;;;;;;;;;4964981;28;20082;-72
2022/11/23 13:18:23;;;;;;;6.72;6.32;;;;;;;;;;4971795;28;20144;-72
2022/11/23 13:21:07;;;;;;;6.70;6.30;;;;;;;;;;4969207;28;20490;-72
2022/11/23 13:23:37;;;;;;;6.35;5.88;;;;;;;;;;4968958;28;20058;-72
2022/11/23 13:26:23;;;;;;;8.18;6.60;;;;;;;;;;4973782;28;20044;-73
2022/11/23 13:28:51;;;;;;;7.32;6.88;;;;;;;;;;4974215;28;20093;-73
2022/11/23 13:31:23;;;;;;;6.78;6.28;;;;;;;;;;4974723;28;20038;-72
2022/11/23 13:33:54;;;;;;;6.78;6.38;;;;;;;;;;4972118;28;20039;-72
2022/11/23 13:36:29;;;;;;;8.02;6.80;;;;;;;;;;4979138;28;20089;-72
2022/11/23 13:39:01;;;;;;;7.72;7.15;;;;;;;;;;4973365;28;20039;-73
2022/11/23 13:41:33;;;;;;;7.28;6.72;;;;;;;;;;4972508;28;20030;-73
2022/11/23 13:44:26;;;;;;;7.50;6.90;;;;;;;;;;4971471;28;20108;-72
2022/11/23 13:47:01;;;;;;;7.30;6.80;;;;;;;;;;4975146;28;20038;-73
2022/11/23 13:49:44;;;;;;;7.50;7.00;;;;;;;;;;4971261;28;20282;-72
2022/11/23 13:52:22;;;;;;;7.38;6.88;;;;;;;;;;4969803;28;20043;-73
2022/11/23 13:54:58;;;;;;;7.88;7.28;;;;;;;;;;4974839;28;20046;-72
2022/11/23 13:57:24;;;;;;;9.90;6.90;;;;;;;;;;4972608;28;20394;-72
2022/11/23 13:59:50;;;;;;;6.85;6.28;;;;;;;;;;4968603;28;20490;-72
2022/11/23 14:02:15;;;;;;;7.70;7.05;;;;;;;;;;4976052;28;20558;-72
2022/11/23 14:04:43;;;;;;;7.35;6.75;;;;;;;;;;4974597;28;20543;-72
2022/11/23 14:07:21;;;;;;;7.88;7.30;;;;;;;;;;4971587;28;20060;-73
2022/11/23 14:09:57;;;;;;;7.10;6.60;;;;;;;;;;4973227;28;20048;-73
2022/11/23 14:12:41;;;;;;;12.25;7.85;;;;;;;;;;4975780;28;20045;-72
2022/11/23 14:15:21;;;;;;;8.35;7.70;;;;;;;;;;4977036;28;20104;-72
2022/11/23 14:17:55;;;;;;;7.72;7.22;;;;;;;;;;4973164;28;20494;-71
2022/11/23 14:20:39;;;;;;;7.68;7.10;;;;;;;;;;4980150;28;20042;-73
2022/11/23 14:23:24;;;;;;;8.07;7.47;;;;;;;;;;4974086;28;20398;-73
2022/11/23 14:25:58;;;;;;;8.48;7.88;;;;;;;;;;4969159;28;20303;-72
2022/11/23 14:28:40;;;;;;;8.95;7.50;;;;;;;;;;4975094;28;20038;-72
2022/11/23 14:31:43;;;;;;;7.45;6.93;;;;;;;;;;4974247;28;20039;-72
2022/11/23 14:34:22;;;;;;;8.00;7.40;;;;;;;;;;4971062;28;20469;-73
2022/11/23 14:36:56;;;;;;;7.15;6.70;;;;;;;;;;4973387;28;20113;-72
2022/11/23 14:39:39;;;;;;;7.38;6.88;;;;;;;;;;4978414;28;20038;-73
2022/11/23 14:42:12;;;;;;;7.47;7.00;;;;;;;;;;4967286;28;20088;-72
2022/11/23 14:44:40;;;;;;;7.70;7.20;;;;;;;;;;4975534;28;20493;-73
2022/11/23 14:47:08;;;;;;;7.28;6.82;;;;;;;;;;4969921;28;20494;-72
2022/11/23 14:49:34;;;;;;;7.10;6.70;;;;;;;;;;4972554;28;20097;-73
2022/11/23 14:52:03;;;;;;;8.02;7.43;;;;;;;;;;4978215;28;20054;-73
2022/11/23 14:54:29;;;;;;;6.63;6.27;;;;;;;;;;4978883;28;20034;-72
2022/11/23 14:56:59;;;;;;;7.18;6.75;;;;;;;;;;4969945;28;20038;-73
2022/11/23 14:59:38;;;;;;;7.68;6.68;;;;;;;;;;4972285;28;20204;-72
2022/11/23 15:02:18;;;;;;;6.97;6.57;;;;;;;;;;4977212;28;20045;-72
2022/11/23 15:05:02;;;;;;;7.10;6.65;;;;;;;;;;4968687;28;20050;-72
2022/11/23 15:07:49;;;;;;;7.53;6.90;;;;;;;;;;4973678;28;20050;-73
2022/11/23 15:10:21;;;;;;;7.70;7.10;;;;;;;;;;4978290;28;20526;-72